KOCF/OCF METAR and TAF weather

Enter ICAO airport designator
Station Type Date Time Source
KOCF METAR 2020/04/07 15:51 UTC NOAA

KOCF 071551Z 12003KT 10SM FEW039 27/17 A3013 RMK AO2 SLP201 T02670167 $


Station Type Date Time Source
KOCF Decoded METAR 2020/04/07 15:51 UTC NOAA

Ocala, Ocala International Airport-Jim Taylor Field, FL, United States (KOCF) 29-10N 082-13W
Apr 07, 2020 - 11:51 AM EDT / 2020.04.07 1551 UTC
Wind: from the ESE (120 degrees) at 3 MPH (3 KT):0
Visibility: 10 mile(s):0
Sky conditions: mostly clear
Temperature: 80.1 F (26.7 C)
Dew Point: 62.1 F (16.7 C)
Relative Humidity: 54%
Pressure (altimeter): 30.13 in. Hg (1020 hPa)
ob: KOCF 071551Z 12003KT 10SM FEW039 27/17 A3013 RMK AO2 SLP201 T02670167
cycle: 16

Station Type Date Time Source
KOCF TAF UTC NOAA

Error!

Example: see airport list